DW8937 Weather Reports


Display with metric or nautical units.
time (UTC)temp
F
wind
direction
speed
MPH
gust
MPH
rain 1hr
in
rain 24hr
in
rain mn
in
humidity
%
barometer
mb
20190117082704 36 225 5.0 9.0 0.09 0.27 0.27 75 976.6
20190117082204 36 213 6.0 11.0 0.09 0.26 0.26 75 976.6
20190117081705 36 206 6.0 11.0 0.09 0.25 0.25 75 976.6
20190117081206 36 204 7.0 12.0 0.09 0.24 0.24 75 976.6
20190117080704 36 208 7.0 12.0 0.08 0.24 0.24 75 976.5
20190117080205 36 195 7.0 12.0 0.08 0.23 0.23 75 976.6
20190117075704 36 207 7.0 11.0 0.08 0.22 0.22 75 976.6
20190117075204 36 199 6.0 17.0 0.09 0.22 0.22 75 976.5
20190117074704 36 197 6.0 17.0 0.09 0.21 0.21 75 976.5
20190117074205 36 173 6.0 17.0 0.09 0.20 0.20 75 976.4
20190117073704 36 211 7.0 13.0 0.09 0.20 0.20 75 976.5
20190117073204 36 234 7.0 13.0 0.08 0.19 0.19 75 976.6
20190117072706 36 223 6.0 11.0 0.07 0.17 0.17 75 976.7
20190117072205 36 205 6.0 11.0 0.07 0.17 0.17 75 976.7
20190117071704 36 205 6.0 11.0 0.07 0.17 0.17 75 976.7
20190117071207 36 211 6.0 11.0 0.07 0.16 0.16 75 976.6
20190117070704 36 217 6.0 10.0 0.06 0.15 0.15 75 976.7
20190117070205 36 198 6.0 10.0 0.06 0.15 0.15 75 976.6
20190117065705 36 194 6.0 10.0 0.06 0.13 0.13 75 976.6
20190117065205 36 208 6.0 10.0 0.06 0.13 0.13 75 976.6
20190117064705 36 211 6.0 10.0 0.06 0.13 0.13 75 976.6
20190117064205 36 204 5.0 10.0 0.06 0.12 0.12 75 976.7
20190117063705 36 230 5.0 8.0 0.06 0.11 0.11 75 976.7
20190117063205 36 207 5.0 8.0 0.05 0.10 0.10 75 976.7
20190117062704 36 206 4.0 8.0 0.06 0.10 0.10 75 976.7
20190117062205 36 207 4.0 7.0 0.06 0.09 0.09 75 976.8
20190117061705 36 209 4.0 7.0 0.09 0.09 0.09 75 976.8
20190117061204 36 212 4.0 7.0 0.08 0.09 0.09 75 976.8
20190117060705 36 232 3.0 8.0 0.09 0.09 0.09 75 976.8
20190117060205 36 233 4.0 8.0 0.08 0.08 0.08 75 976.9
20190117055704 36 235 5.0 8.0 0.08 0.08 0.07 75 976.9
20190117055204 36 205 4.0 10.0 0.07 0.07 0.07 75 976.9
20190117054704 35 204 5.0 10.0 0.07 0.07 0.07 75 976.8
20190117054205 35 210 5.0 10.0 0.06 0.06 0.06 75 976.9
20190117053704 35 228 6.0 10.0 0.06 0.06 0.06 75 977.0
20190117053205 35 228 6.0 12.0 0.05 0.05 0.05 75 977.0
20190117052704 35 216 6.0 12.0 0.05 0.05 0.05 75 977.1
20190117052204 35 242 7.0 12.0 0.02 0.02 0.02 75 977.1
20190117051704 35 205 7.0 12.0 0.01 0.01 0.01 75 977.1
20190117051205 35 200 7.0 13.0 0.01 0.01 0.01 75 977.1
20190117050704 35 215 8.0 13.0 0.00 0.00 0.00 75 977.2
20190117050205 35 207 7.0 16.0 0.00 0.00 0.00 75 977.2
20190117045704 35 203 7.0 16.0 0.00 0.00 0.00 75 977.2
20190117045205 35 217 7.0 16.0 0.00 0.00 0.00 75 977.3
20190117044705 35 217 8.0 16.0 0.00 0.00 0.00 76 977.3
20190117044204 35 193 8.0 16.0 0.00 0.00 0.00 76 977.3
20190117043705 35 200 9.0 16.0 0.00 0.00 0.00 76 977.4
20190117043204 35 196 9.0 18.0 0.00 0.00 0.00 75 977.4
20190117042704 34 182 9.0 18.0 0.00 0.00 0.00 76 977.3
20190117042205 34 192 9.0 18.0 0.00 0.00 0.00 76 977.4
20190117041705 34 196 9.0 18.0 0.00 0.00 0.00 76 977.4
20190117041204 34 191 9.0 18.0 0.00 0.00 0.00 76 977.6
20190117040705 33 205 9.0 18.0 0.00 0.00 0.00 76 977.6
20190117040204 33 186 9.0 17.0 0.00 0.00 0.00 76 977.6
20190117035705 33 192 10.0 17.0 0.00 0.00 0.00 76 977.8
20190117035204 33 217 9.0 15.0 0.00 0.00 0.00 76 977.8
20190117034705 33 206 8.0 15.0 0.00 0.00 0.00 76 977.9
20190117034204 33 183 8.0 15.0 0.00 0.00 0.00 76 977.9
20190117033704 33 186 8.0 15.0 0.00 0.00 0.00 76 978.1
20190117033205 33 185 9.0 14.0 0.00 0.00 0.00 76 978.2
20190117032704 33 208 8.0 14.0 0.00 0.00 0.00 77 978.3
20190117032204 32 193 7.0 14.0 0.00 0.00 0.00 77 978.3
20190117031705 32 215 7.0 14.0 0.00 0.00 0.00 77 978.4
20190117031204 32 171 8.0 15.0 0.00 0.00 0.00 77 978.5
20190117030705 32 205 8.0 15.0 0.00 0.00 0.00 77 978.6
20190117030204 32 182 8.0 17.0 0.00 0.00 0.00 77 978.6
20190117025707 31 190 8.0 17.0 0.00 0.00 0.00 77 978.7
20190117025205 31 187 8.0 15.0 0.00 0.00 0.00 77 978.7
20190117024706 31 174 8.0 15.0 0.00 0.00 0.00 78 978.8
20190117024204 31 194 7.0 14.0 0.00 0.00 0.00 78 979.0
20190117023705 30 190 8.0 18.0 0.00 0.00 0.00 78 979.0
20190117023205 30 205 8.0 18.0 0.00 0.00 0.00 78 979.2
20190117022705 30 173 8.0 18.0 0.00 0.00 0.00 78 979.2
20190117022204 29 150 8.0 16.0 0.00 0.00 0.00 79 979.3
20190117021704 29 183 8.0 13.0 0.00 0.00 0.00 79 979.5
20190117021204 29 165 8.0 13.0 0.00 0.00 0.00 79 979.6
20190117020704 28 160 8.0 16.0 0.00 0.00 0.00 79 979.7
20190117020204 28 169 8.0 16.0 0.00 0.00 0.00 79 979.7
20190117015704 28 160 9.0 18.0 0.00 0.00 0.00 79 980.1
20190117015205 28 161 9.0 18.0 0.00 0.00 0.00 79 980.1
20190117014705 28 140 9.0 18.0 0.00 0.00 0.00 79 980.2
20190117014204 27 178 9.0 17.0 0.00 0.00 0.00 79 980.3
20190117013705 27 157 9.0 18.0 0.00 0.00 0.00 80 980.5
20190117013204 27 184 9.0 21.0 0.00 0.00 0.00 80 980.7
20190117012704 27 138 11.0 21.0 0.00 0.00 0.00 80 980.8
20190117012204 27 135 10.0 17.0 0.00 0.00 0.00 80 980.9
20190117011704 26 150 10.0 17.0 0.00 0.00 0.00 80 981.0
20190117011204 26 163 10.0 18.0 0.00 0.00 0.00 80 981.1
20190117010704 26 156 9.0 19.0 0.00 0.00 0.00 80 981.3
20190117010204 26 178 11.0 19.0 0.00 0.00 0.00 80 981.5
20190117005704 26 186 10.0 20.0 0.00 0.00 0.00 80 981.7
20190117005204 26 165 10.0 20.0 0.00 0.00 0.00 80 981.8
20190117004704 26 159 10.0 20.0 0.00 0.00 0.00 80 981.9
20190117004205 26 132 11.0 22.0 0.00 0.00 0.00 80 982.0
20190117003704 26 147 12.0 22.0 0.00 0.00 0.00 80 982.2
20190117003204 26 137 11.0 22.0 0.00 0.00 0.00 80 982.4
20190117002705 26 131 10.0 19.0 0.00 0.00 0.00 80 982.5
20190117002205 26 148 10.0 19.0 0.00 0.00 0.00 80 982.7
20190117001704 26 132 11.0 22.0 0.00 0.00 0.00 80 982.9
20190117001205 26 135 11.0 22.0 0.00 0.00 0.00 80 983.1
20190117000704 25 135 11.0 21.0 0.00 0.00 0.00 80 983.2
20190117000205 25 123 12.0 21.0 0.00 0.00 0.00 80 983.4
20190116235704 25 135 12.0 20.0 0.00 0.00 0.00 80 983.5
20190116235204 25 123 10.0 22.0 0.00 0.00 0.00 81 983.9
20190116234705 25 111 11.0 22.0 0.00 0.00 0.00 80 983.8
20190116234204 25 102 11.0 22.0 0.00 0.00 0.00 80 984.0
20190116233704 25 96 11.0 18.0 0.00 0.00 0.00 80 984.3
20190116233205 25 115 11.0 18.0 0.00 0.00 0.00 81 984.5
20190116232707 25 109 11.0 18.0 0.00 0.00 0.00 81 984.8
20190116232204 25 123 11.0 17.0 0.00 0.00 0.00 81 985.2
20190116231704 25 92 11.0 17.0 0.00 0.00 0.00 81 985.3
20190116231205 25 111 11.0 16.0 0.00 0.00 0.00 81 985.6
20190116230704 25 109 11.0 16.0 0.00 0.00 0.00 81 985.8
20190116230204 25 135 10.0 16.0 0.00 0.00 0.00 81 986.1
20190116225704 25 127 10.0 21.0 0.00 0.00 0.00 81 986.4
20190116225204 25 128 10.0 21.0 0.00 0.00 0.00 81 986.6
20190116224708 25 123 9.0 18.0 0.00 0.00 0.00 81 986.9
20190116224205 25 115 8.0 18.0 0.00 0.00 0.00 81 987.1
20190116223704 25 111 9.0 18.0 0.00 0.00 0.00 81 987.3
20190116223205 25 123 9.0 16.0 0.00 0.00 0.00 81 987.5
20190116222706 25 128 9.0 16.0 0.00 0.00 0.00 81 987.7
20190116222205 25 130 9.0 16.0 0.00 0.00 0.00 81 987.8
20190116221706 25 129 8.0 15.0 0.00 0.00 0.00 81 988.1
20190116221204 25 127 9.0 15.0 0.00 0.00 0.00 81 988.3
20190116220705 24 161 9.0 14.0 0.00 0.00 0.00 81 988.5
20190116220204 24 144 8.0 14.0 0.00 0.00 0.00 81 988.7
20190116215706 24 153 7.0 13.0 0.00 0.00 0.00 81 988.8
20190116215205 24 137 7.0 13.0 0.00 0.00 0.00 82 988.9
20190116214704 24 139 7.0 13.0 0.00 0.00 0.00 82 989.1
20190116214205 24 129 7.0 13.0 0.00 0.00 0.00 82 989.3
20190116213704 24 139 7.0 13.0 0.00 0.00 0.00 82 989.4
20190116213205 24 130 7.0 12.0 0.00 0.00 0.00 82 989.6
20190116212704 24 135 7.0 12.0 0.00 0.00 0.00 82 989.7
20190116212204 24 148 7.0 11.0 0.00 0.00 0.00 82 989.8
20190116211704 24 147 6.0 11.0 0.00 0.00 0.00 82 990.1
20190116211204 24 138 7.0 11.0 0.00 0.00 0.00 82 990.2
20190116210704 24 135 6.0 11.0 0.00 0.00 0.00 82 990.4
20190116210204 24 130 6.0 13.0 0.00 0.00 0.00 82 990.5
20190116205704 24 140 6.0 13.0 0.00 0.00 0.00 82 990.7
20190116205205 23 154 7.0 13.0 0.00 0.00 0.00 82 990.7
20190116204704 23 141 6.0 9.0 0.00 0.00 0.00 82 990.8
20190116204204 23 161 6.0 9.0 0.00 0.00 0.00 82 990.9
20190116203704 23 162 5.0 9.0 0.00 0.00 0.00 82 991.0
20190116203204 23 146 5.0 9.0 0.00 0.00 0.00 82 991.1
20190116202706 23 146 6.0 9.0 0.00 0.00 0.00 82 991.2
20190116202205 23 129 6.0 9.0 0.00 0.00 0.00 82 991.2
20190116201704 23 152 5.0 9.0 0.00 0.00 0.00 82 991.3
20190116201206 23 151 5.0 8.0 0.00 0.00 0.00 82 991.4
20190116200705 23 151 5.0 8.0 0.00 0.00 0.00 82 991.5
20190116200204 23 152 5.0 10.0 0.00 0.00 0.00 82 991.7
20190116195704 23 152 5.0 10.0 0.00 0.00 0.00 82 991.7
20190116195205 23 152 5.0 10.0 0.00 0.00 0.00 82 991.8
20190116194704 23 150 4.0 8.0 0.00 0.00 0.00 82 991.9
20190116194204 24 155 5.0 8.0 0.00 0.00 0.00 82 992.1
20190116193704 24 163 5.0 8.0 0.00 0.00 0.00 82 992.1
20190116193205 23 162 6.0 9.0 0.00 0.00 0.00 82 992.2
20190116192704 23 176 6.0 9.0 0.00 0.00 0.00 82 992.3
20190116192207 23 165 5.0 8.0 0.00 0.00 0.00 82 992.3
20190116191705 23 155 5.0 8.0 0.00 0.00 0.00 82 992.4
20190116191204 23 156 5.0 8.0 0.00 0.00 0.00 82 992.6
20190116190705 23 156 5.0 8.0 0.00 0.00 0.00 82 992.7
20190116190205 23 165 5.0 8.0 0.00 0.00 0.00 82 992.8
20190116185705 23 143 5.0 8.0 0.00 0.00 0.00 82 992.9
20190116185205 23 134 4.0 8.0 0.00 0.00 0.00 82 992.9
20190116184705 23 155 4.0 8.0 0.00 0.00 0.00 82 993.0
20190116184204 23 155 3.0 8.0 0.00 0.00 0.00 82 993.2
20190116183705 23 172 4.0 8.0 0.00 0.00 0.00 82 993.2
20190116183204 23 173 3.0 8.0 0.00 0.00 0.00 82 993.4
20190116182705 23 169 3.0 6.0 0.00 0.00 0.00 82 993.4
20190116182205 22 134 3.0 6.0 0.00 0.00 0.00 82 993.4
20190116181705 22 134 3.0 5.0 0.00 0.00 0.00 82 993.4
20190116181205 22 134 3.0 5.0 0.00 0.00 0.00 82 993.5
20190116180704 22 134 3.0 6.0 0.00 0.00 0.00 82 993.7
20190116180204 22 133 3.0 6.0 0.00 0.00 0.00 83 993.7
20190116175705 23 133 3.0 5.0 0.00 0.00 0.00 83 993.6
20190116175204 23 133 2.0 5.0 0.00 0.00 0.00 82 993.7
20190116174707 23 209 3.0 5.0 0.00 0.00 0.00 82 993.8
20190116174204 23 215 3.0 5.0 0.00 0.00 0.00 82 993.8
20190116173704 23 242 3.0 5.0 0.00 0.00 0.00 82 994.0
20190116173204 23 243 3.0 5.0 0.00 0.00 0.00 82 994.1
20190116172704 23 246 3.0 5.0 0.00 0.00 0.00 83 994.1
20190116172207 23 266 3.0 4.0 0.00 0.00 0.00 83 994.2
20190116171704 23 267 2.0 4.0 0.00 0.00 0.00 83 994.3
20190116171205 22 267 2.0 4.0 0.00 0.00 0.00 82 994.4
20190116170705 22 267 1.0 3.0 0.00 0.00 0.00 82 994.4
20190116170204 22 267 1.0 3.0 0.00 0.00 0.00 82 994.4
20190116165704 22 267 2.0 4.0 0.00 0.00 0.00 82 994.4
20190116165208 22 267 2.0 5.0 0.00 0.00 0.00 82 994.4
20190116164704 21 267 2.0 5.0 0.00 0.00 0.00 83 994.6
20190116164205 21 267 3.0 5.0 0.00 0.00 0.00 83 994.7
20190116163704 21 267 3.0 5.0 0.00 0.00 0.00 82 994.8
20190116163205 21 267 1.0 4.0 0.00 0.00 0.00 82 995.0
20190116162704 22 267 1.0 3.0 0.00 0.00 0.00 83 995.0
20190116162204 22 267 1.0 3.0 0.00 0.00 0.00 83 995.0
20190116161707 22 267 1.0 3.0 0.00 0.00 0.00 82 995.1
20190116161205 22 267 1.0 3.0 0.00 0.00 0.00 82 995.2
20190116160705 22 267 1.0 3.0 0.00 0.00 0.00 82 995.3
20190116160205 22 267 1.0 5.0 0.00 0.00 0.00 83 995.4
20190116155705 21 267 2.0 5.0 0.00 0.00 0.00 83 995.4
20190116155204 21 267 3.0 5.0 0.00 0.00 0.00 83 995.4
20190116154708 21 267 3.0 5.0 0.00 0.00 0.00 83 995.5
20190116154204 21 269 1.0 4.0 0.00 0.00 0.00 83 995.5
20190116153705 21 269 1.0 5.0 0.00 0.00 0.00 82 995.5
20190116153204 20 269 3.0 5.0 0.00 0.00 0.00 82 995.6
20190116152704 20 269 3.0 4.0 0.00 0.00 0.00 82 995.7
20190116152205 20 315 1.0 3.0 0.00 0.00 0.00 82 995.6
20190116151706 20 315 0.0 0.0 0.00 0.00 0.00 82 995.7
20190116151205 20 315 0.0 0.0 0.00 0.00 0.00 82 995.6
20190116150705 21 315 0.0 0.0 0.00 0.00 0.00 82 995.7
20190116150204 21 315 0.0 0.0 0.00 0.00 0.00 81 995.7
20190116145708 21 315 0.0 0.0 0.00 0.00 0.00 81 995.8
20190116145206 21 315 0.0 0.0 0.00 0.00 0.00 81 995.8
20190116144704 22 315 0.0 0.0 0.00 0.00 0.00 81 995.9
20190116144204 22 315 0.0 0.0 0.00 0.00 0.00 81 995.9
20190116143705 22 315 0.0 0.0 0.00 0.00 0.00 80 995.9
20190116143205 23 315 0.0 1.0 0.00 0.00 0.00 80 995.9
20190116142704 23 315 0.0 1.0 0.00 0.00 0.00 80 995.9
20190116142205 24 315 0.0 1.0 0.00 0.00 0.00 80 995.9
20190116141704 24 315 0.0 2.0 0.00 0.00 0.00 80 995.9
20190116141205 24 315 0.0 4.0 0.00 0.00 0.00 80 995.9
20190116140704 24 315 1.0 4.0 0.00 0.00 0.00 79 995.8
20190116140204 25 315 2.0 4.0 0.00 0.00 0.00 79 995.8
20190116135705 25 315 2.0 8.0 0.00 0.00 0.00 79 995.8
20190116135205 25 315 3.0 8.0 0.00 0.00 0.00 79 995.9
20190116134704 26 315 4.0 8.0 0.00 0.00 0.00 79 995.8
20190116134204 26 315 4.0 9.0 0.00 0.00 0.00 78 995.8
20190116133704 26 313 4.0 10.0 0.00 0.00 0.00 78 995.8
20190116133204 26 312 5.0 10.0 0.00 0.00 0.00 78 995.7
20190116132707 26 315 6.0 10.0 0.00 0.00 0.00 78 995.8
20190116132204 26 319 6.0 12.0 0.00 0.00 0.00 78 995.8
20190116131704 26 320 6.0 12.0 0.00 0.00 0.00 78 995.7
20190116131205 26 294 6.0 12.0 0.00 0.00 0.00 78 995.7
20190116130704 27 294 6.0 11.0 0.00 0.00 0.00 77 995.8
20190116130204 26 292 6.0 12.0 0.00 0.00 0.00 78 995.8
20190116125707 26 284 6.0 13.0 0.00 0.00 0.00 77 995.8
20190116125204 26 311 7.0 13.0 0.00 0.00 0.00 77 995.8
20190116124704 26 303 8.0 13.0 0.00 0.00 0.00 77 995.7
20190116124205 26 305 9.0 14.0 0.00 0.00 0.00 77 995.7
20190116123704 26 317 8.0 14.0 0.00 0.00 0.00 77 995.7
20190116123205 26 303 8.0 14.0 0.00 0.00 0.00 77 995.7
20190116122706 26 296 8.0 15.0 0.00 0.00 0.00 76 995.6
20190116122205 26 314 8.0 15.0 0.00 0.00 0.00 76 995.7
20190116121704 27 315 9.0 15.0 0.00 0.00 0.00 77 995.6
20190116121204 26 307 10.0 16.0 0.00 0.00 0.00 77 995.6
20190116120705 26 298 9.0 17.0 0.00 0.00 0.00 77 995.6
20190116120204 26 326 9.0 18.0 0.00 0.00 0.00 77 995.6
20190116115706 26 306 10.0 18.0 0.00 0.00 0.00 77 995.5
20190116115204 26 293 10.0 18.0 0.00 0.00 0.00 77 995.6
20190116114704 26 309 10.0 21.0 0.00 0.00 0.00 77 995.6
20190116114205 26 324 11.0 21.0 0.00 0.00 0.00 77 995.6
20190116113705 26 271 9.0 15.0 0.00 0.00 0.00 77 995.6
20190116113205 26 286 7.0 15.0 0.00 0.00 0.00 77 995.6
20190116112704 26 289 6.0 11.0 0.00 0.00 0.00 77 995.6
20190116112204 26 285 5.0 11.0 0.00 0.00 0.00 77 995.5
20190116111704 26 317 5.0 11.0 0.00 0.00 0.00 77 995.5
20190116111205 26 302 6.0 12.0 0.00 0.00 0.00 78 995.5
20190116110704 25 292 6.0 12.0 0.00 0.00 0.00 78 995.5
20190116110205 25 329 6.0 10.0 0.00 0.00 0.00 79 995.5
20190116105705 25 298 5.0 10.0 0.00 0.00 0.00 79 995.4
20190116105205 25 311 6.0 10.0 0.00 0.00 0.00 80 995.4
20190116104705 25 320 5.0 11.0 0.00 0.00 0.00 80 995.3
20190116104204 25 310 5.0 12.0 0.00 0.00 0.00 80 995.3
20190116103705 25 319 6.0 12.0 0.00 0.00 0.00 80 995.4
20190116103205 25 288 6.0 11.0 0.00 0.00 0.00 80 995.5
20190116102704 24 292 5.0 9.0 0.00 0.00 0.00 80 995.6
20190116102205 24 307 4.0 10.0 0.00 0.00 0.00 80 995.5
20190116101704 24 309 4.0 10.0 0.00 0.00 0.00 81 995.5
20190116101205 24 309 5.0 10.0 0.00 0.00 0.00 81 995.5
20190116100704 24 300 4.0 8.0 0.00 0.00 0.00 81 995.5
20190116100205 23 291 4.0 10.0 0.00 0.00 0.00 81 995.5
20190116095705 23 306 5.0 11.0 0.00 0.00 0.00 81 995.5
20190116095205 24 310 5.0 11.0 0.00 0.00 0.00 81 995.5
20190116094708 23 289 6.0 11.0 0.00 0.00 0.00 81 995.4
20190116094206 23 296 6.0 11.0 0.00 0.00 0.00 81 995.4
20190116093707 23 296 6.0 13.0 0.00 0.00 0.00 81 995.4
20190116093204 23 314 7.0 13.0 0.00 0.00 0.00 81 995.3
20190116092704 23 295 8.0 13.0 0.00 0.00 0.00 81 995.3
20190116092204 23 298 8.0 13.0 0.00 0.00 0.00 81 995.3
20190116091705 23 296 7.0 15.0 0.00 0.00 0.00 81 995.2
20190116091204 23 304 8.0 15.0 0.00 0.00 0.00 81 995.3
20190116090704 23 315 8.0 15.0 0.00 0.00 0.00 81 995.2
20190116090205 23 316 7.0 12.0 0.00 0.00 0.00 81 995.1
20190116085708 24 306 6.0 11.0 0.00 0.00 0.00 81 995.1
20190116085205 24 302 6.0 11.0 0.00 0.00 0.00 81 995.0
20190116084705 24 284 6.0 9.0 0.00 0.00 0.00 81 995.0
20190116084205 24 259 5.0 9.0 0.00 0.00 0.00 81 995.0
20190116083705 24 279 4.0 11.0 0.00 0.00 0.00 81 994.9
20190116083205 24 293 5.0 13.0 0.00 0.00 0.00 81 994.8